1878 NOT_NAMED (1878011S18054)


IBTrACS version v04r00. Visit IBTrACS website for data access.
Please direct all questions to the IBTrACS Q and A forum

Storm track - Intensity - Wind Radii - Intensity Data - Source Data - All data

Summary Information

Storm ID 1878011S18054
Start Jan 11 06Z
End Jan 17 06Z
ATCF IDs
Track status Best track data.

Storm track plot

Map of storm track

Intensity plots

No Intensity information for this storm


Radial wind information

No radial wind information for this storm


Position and Intensity Table

BASIN ISO_TIME_________ NATURE LAT LON
degrees north degrees east
SI 1878-01-11 06:00:00 NR -17.60 54.30
SI 09:00:00 NR -17.61 54.30
SI 12:00:00 NR -17.63 54.29
SI 15:00:00 NR -17.67 54.28
SI 18:00:00 NR -17.74 54.25
SI 21:00:00 NR -17.84 54.20
SI 1878-01-12 00:00:00 NR -18.00 54.13
SI 03:00:00 NR -18.22 54.03
SI 06:00:00 NR -18.50 53.90
SI 09:00:00 NR -18.86 53.73
SI 12:00:00 NR -19.29 53.54
SI 15:00:00 NR -19.77 53.32
SI 18:00:00 NR -20.30 53.11
SI 21:00:00 NR -20.87 52.89
SI 1878-01-13 00:00:00 NR -21.47 52.70
SI 03:00:00 NR -22.08 52.53
SI 06:00:00 NR -22.70 52.40
SI 09:00:00 NR -23.29 52.31
SI 12:00:00 NR -23.90 52.24
SI 15:00:00 NR -24.52 52.22
SI 18:00:00 NR -25.15 52.23
SI 21:00:00 NR -25.77 52.28
SI 1878-01-14 00:00:00 NR -26.39 52.37
SI 03:00:00 NR -27.01 52.51
SI 06:00:00 NR -27.60 52.70
SI 09:00:00 NR -28.17 52.91
SI 12:00:00 NR -28.73 53.18
SI 15:00:00 NR -29.28 53.49
SI 18:00:00 NR -29.81 53.85
SI 21:00:00 NR -30.33 54.24
SI 1878-01-15 00:00:00 NR -30.83 54.67
SI 03:00:00 NR -31.32 55.12
SI 06:00:00 NR -31.80 55.60
SI 09:00:00 NR -32.32 56.13
SI 12:00:00 NR -32.83 56.70
SI 15:00:00 NR -33.32 57.28
SI 18:00:00 NR -33.78 57.87
SI 21:00:00 NR -34.21 58.45
SI 1878-01-16 00:00:00 NR -34.59 58.99
SI 03:00:00 NR -34.92 59.48
SI 06:00:00 NR -35.20 59.90
SI 09:00:00 NR -35.41 60.23
SI 12:00:00 NR -35.57 60.48
SI 15:00:00 NR -35.68 60.66
SI 18:00:00 NR -35.75 60.78
SI 21:00:00 NR -35.79 60.85
SI 1878-01-17 00:00:00 NR -35.81 60.89
SI 03:00:00 NR -35.81 60.90
SI 06:00:00 NR -35.80 60.90

Source Information

Agency Information
USA
TOKYO
CMA
HKO
NEWDELHI
REUNION WMO-Best-Tracks.txt:Line=1147:xxxx878169
BOM
NADI
WELLINGTON
DS824
TD9636
TD9635
NEUMANN
MLC

All available IBTrACS Data

SEASON BASIN SUBBASIN ISO_TIME_________ NATURE LAT LON WMO AGENCY DIST2LAND LANDFALL IFLAG USA SSHS REUNION LAT REUNION LON REUNION TYPE REUNION TNUM STORM SPEED STORM DIR
Year degrees north degrees east km km 1 degrees north degrees east 1 kts degrees
1878 SI MM 1878-01-11 06:00:00 NR -17.60 54.30 reunion 394 394 _____O________ -1 -17.60 54.30 99 9.90 0 0
1878 SI MM 09:00:00 NR -17.61 54.30 394 394 _____P________ -1 -17.61 54.30 99 0 223
1878 SI MM 12:00:00 NR -17.63 54.29 394 383 _____P________ -1 -17.63 54.29 99 1 0
1878 SI MM 15:00:00 NR -17.67 54.28 383 383 _____P________ -1 -17.67 54.28 99 1 196
1878 SI MM 18:00:00 NR -17.74 54.25 383 376 _____P________ -1 -17.74 54.25 99 2 202
1878 SI MM 21:00:00 NR -17.84 54.20 376 354 _____P________ -1 -17.84 54.20 99 3 203
1878 SI MM 1878-01-12 00:00:00 NR -18.00 54.13 358 337 _____P________ -1 -18.00 54.13 99 4 203
1878 SI MM 03:00:00 NR -18.22 54.03 341 315 _____P________ -1 -18.22 54.03 99 5 204
1878 SI MM 06:00:00 NR -18.50 53.90 reunion 315 291 _____O________ -1 -18.50 53.90 99 9.90 7 204
1878 SI MM 09:00:00 NR -18.86 53.73 288 267 _____P________ -1 -18.86 53.73 99 9 204
1878 SI MM 12:00:00 NR -19.29 53.54 267 244 _____P________ -1 -19.29 53.54 99 10 203
1878 SI MM 15:00:00 NR -19.77 53.32 245 231 _____P________ -1 -19.77 53.32 99 11 202
1878 SI MM 18:00:00 NR -20.30 53.11 236 231 _____P________ -1 -20.30 53.11 99 12 200
1878 SI MM 21:00:00 NR -20.87 52.89 239 238 _____P________ -1 -20.87 52.89 99 12 198
1878 SI MM 1878-01-13 00:00:00 NR -21.47 52.70 262 262 _____P________ -1 -21.47 52.70 99 13 196
1878 SI MM 03:00:00 NR -22.08 52.53 300 300 _____P________ -1 -22.08 52.53 99 13 193
1878 SI MM 06:00:00 NR -22.70 52.40 reunion 337 337 _____O________ -1 -22.70 52.40 99 9.90 12 190
1878 SI MM 09:00:00 NR -23.29 52.31 381 381 _____P________ -1 -23.29 52.31 99 12 187
1878 SI MM 12:00:00 NR -23.90 52.24 430 430 _____P________ -1 -23.90 52.24 99 12 184
1878 SI MM 15:00:00 NR -24.52 52.22 473 473 _____P________ -1 -24.52 52.22 99 13 181
1878 SI MM 18:00:00 NR -25.15 52.23 490 490 _____P________ -1 -25.15 52.23 99 13 178
1878 SI MM 21:00:00 NR -25.77 52.28 523 523 _____P________ -1 -25.77 52.28 99 13 174
1878 SI MM 1878-01-14 00:00:00 NR -26.39 52.37 553 553 _____P________ -1 -26.39 52.37 99 13 170
1878 SI MM 03:00:00 NR -27.01 52.51 583 583 _____P________ -1 -27.01 52.51 99 12 166
1878 SI MM 06:00:00 NR -27.60 52.70 reunion 628 628 _____O________ -1 -27.60 52.70 99 9.90 12 163
1878 SI MM 09:00:00 NR -28.17 52.91 677 677 _____P________ -1 -28.17 52.91 99 12 160
1878 SI MM 12:00:00 NR -28.73 53.18 732 732 _____P________ -1 -28.73 53.18 99 12 155
1878 SI MM 15:00:00 NR -29.28 53.49 793 793 _____P________ -1 -29.28 53.49 99 12 152
1878 SI MM 18:00:00 NR -29.81 53.85 850 850 _____P________ -1 -29.81 53.85 99 12 148
1878 SI MM 21:00:00 NR -30.33 54.24 915 915 _____P________ -1 -30.33 54.24 99 12 145
1878 SI MM 1878-01-15 00:00:00 NR -30.83 54.67 987 987 _____P________ -1 -30.83 54.67 99 13 143
1878 SI MM 03:00:00 NR -31.32 55.12 1051 1051 _____P________ -1 -31.32 55.12 99 13 141
1878 SI MM 06:00:00 NR -31.80 55.60 reunion 1123 1123 _____O________ -1 -31.80 55.60 99 9.90 13 139
1878 SI MM 09:00:00 NR -32.32 56.13 1195 1195 _____P________ -1 -32.32 56.13 99 14 138
1878 SI MM 12:00:00 NR -32.83 56.70 1274 1274 _____P________ -1 -32.83 56.70 99 14 136
1878 SI MM 15:00:00 NR -33.32 57.28 1339 1339 _____P________ -1 -33.32 57.28 99 14 134
1878 SI MM 18:00:00 NR -33.78 57.87 1402 1402 _____P________ -1 -33.78 57.87 99 13 133
1878 SI MM 21:00:00 NR -34.21 58.45 1457 1457 _____P________ -1 -34.21 58.45 99 12 131
1878 SI MM 1878-01-16 00:00:00 NR -34.59 58.99 1510 1510 _____P________ -1 -34.59 58.99 99 11 130
1878 SI MM 03:00:00 NR -34.92 59.48 1554 1554 _____P________ -1 -34.92 59.48 99 10 129
1878 SI MM 06:00:00 NR -35.20 59.90 reunion 1596 1596 _____O________ -1 -35.20 59.90 99 9.90 8 129
1878 SI MM 09:00:00 NR -35.41 60.23 1625 1619 _____P________ -1 -35.41 60.23 99 6 128
1878 SI MM 12:00:00 NR -35.57 60.48 1619 1602 _____P________ -1 -35.57 60.48 99 4 128
1878 SI MM 15:00:00 NR -35.68 60.66 1602 1599 _____P________ -1 -35.68 60.66 99 3 127
1878 SI MM 18:00:00 NR -35.75 60.78 1588 1588 _____P________ -1 -35.75 60.78 99 2 125
1878 SI MM 21:00:00 NR -35.79 60.85 1585 1585 _____P________ -1 -35.79 60.85 99 1 122
1878 SI MM 1878-01-17 00:00:00 NR -35.81 60.89 1585 1585 _____P________ -1 -35.81 60.89 99 0 114
1878 SI MM 03:00:00 NR -35.81 60.90 1585 1585 _____P________ -1 -35.81 60.90 99 0 0
1878 SI MM 06:00:00 NR -35.80 60.90 reunion 1585 _____O________ -1 -35.80 60.90 99 9.90 0 0